Time;durP1;ratioP1;P1;durP2;ratioP2;P2;SDS_P1;SDS_P2;PMS_P1;PMS_P2;Temp;Humidity;BMP_temperature;BMP_pressure;BME280_temperature;BME280_humidity;BME280_pressure;Samples;Min_cycle;Max_cycle;Signal;HPM_P1;HPM_P2
2022/07/01 00:02:11;;;;;;;25.48;14.25;;;;;;;11.50;100.00;101353.00;10491417;28;20485;-78
2022/07/01 00:07:11;;;;;;;22.48;13.85;;;;;;;11.37;100.00;101352.38;10506379;28;20036;-78
2022/07/01 00:12:12;;;;;;;21.50;14.10;;;;;;;11.35;100.00;101351.38;10521320;28;20043;-78
2022/07/01 00:17:12;;;;;;;28.08;16.88;;;;;;;11.30;100.00;101356.41;10529948;28;20047;-78
2022/07/01 00:22:13;;;;;;;31.55;17.90;;;;;;;11.39;100.00;101349.84;10530764;28;20100;-78
2022/07/01 00:27:14;;;;;;;23.98;14.07;;;;;;;11.40;100.00;101352.53;10503704;28;20045;-78
2022/07/01 00:32:14;;;;;;;25.15;14.35;;;;;;;11.35;100.00;101355.75;10504166;28;20086;-78
2022/07/01 00:37:15;;;;;;;26.55;14.75;;;;;;;11.44;100.00;101351.88;10527883;28;20170;-78
2022/07/01 00:42:15;;;;;;;33.35;17.35;;;;;;;11.53;100.00;101342.69;10527765;28;20143;-78
2022/07/01 00:47:16;;;;;;;27.30;14.57;;;;;;;11.59;100.00;101349.16;10531277;28;20040;-78
2022/07/01 00:52:16;;;;;;;37.75;15.70;;;;;;;11.64;100.00;101365.09;10510602;28;20058;-77
2022/07/01 00:57:17;;;;;;;23.77;14.48;;;;;;;11.63;100.00;101376.41;10498095;28;20060;-77
2022/07/01 01:02:17;;;;;;;31.05;15.63;;;;;;;11.64;100.00;101400.94;10496620;28;20391;-78
2022/07/01 01:07:18;;;;;;;30.55;15.40;;;;;;;11.72;100.00;101410.09;10479746;28;20484;-78
2022/07/01 01:12:18;;;;;;;28.35;12.48;;;;;;;11.80;100.00;101395.66;10507465;28;20130;-78
2022/07/01 01:17:19;;;;;;;30.73;15.10;;;;;;;11.75;100.00;101390.16;10500561;28;20115;-78
2022/07/01 01:22:19;;;;;;;24.55;14.95;;;;;;;11.69;100.00;101379.34;10465353;28;20044;-78
2022/07/01 01:27:20;;;;;;;23.58;13.40;;;;;;;11.64;100.00;101388.69;10524088;28;20034;-77
2022/07/01 01:32:20;;;;;;;29.75;15.23;;;;;;;11.51;100.00;101399.38;10520580;28;20070;-78
2022/07/01 01:37:21;;;;;;;26.63;13.00;;;;;;;11.51;100.00;101402.00;10487749;28;20146;-78
2022/07/01 01:42:21;;;;;;;23.40;13.70;;;;;;;11.43;100.00;101406.84;10470145;28;20106;-78
2022/07/01 01:47:22;;;;;;;26.42;14.07;;;;;;;11.37;100.00;101396.03;10485321;28;20553;-78
2022/07/01 01:52:22;;;;;;;29.05;15.32;;;;;;;11.34;100.00;101393.25;10498547;28;20040;-77
2022/07/01 01:57:23;;;;;;;29.02;17.55;;;;;;;11.26;100.00;101388.50;10527467;28;20040;-78
2022/07/01 02:02:23;;;;;;;33.30;16.83;;;;;;;11.34;100.00;101393.25;10491664;28;20044;-78
2022/07/01 02:07:24;;;;;;;31.85;16.42;;;;;;;11.36;100.00;101418.72;10485387;28;20051;-78
2022/07/01 02:12:24;;;;;;;33.40;17.80;;;;;;;11.37;100.00;101430.09;10516809;28;20036;-78
2022/07/01 02:17:26;;;;;;;46.65;20.73;;;;;;;11.34;100.00;101415.09;10522640;28;20513;-78
2022/07/01 02:22:26;;;;;;;32.37;19.23;;;;;;;11.39;100.00;101413.63;10493950;28;20036;-78
2022/07/01 02:27:27;;;;;;;36.33;17.27;;;;;;;11.39;100.00;101400.53;10495854;28;20096;-78
2022/07/01 02:32:27;;;;;;;34.55;18.35;;;;;;;11.46;100.00;101413.13;10516031;28;20029;-78
2022/07/01 02:37:28;;;;;;;31.23;17.45;;;;;;;11.51;100.00;101407.22;10483902;28;20064;-77
2022/07/01 02:42:34;;;;;;;37.97;20.00;;;;;;;11.56;100.00;101432.88;10484975;28;20051;-78
2022/07/01 02:47:36;;;;;;;31.75;19.27;;;;;;;11.62;100.00;101427.03;10483485;28;20036;-78
2022/07/01 02:52:37;;;;;;;32.22;20.05;;;;;;;11.69;100.00;101449.25;10487108;28;20389;-78
2022/07/01 02:57:39;;;;;;;33.70;17.05;;;;;;;11.73;100.00;101459.09;10466615;28;20442;-78
2022/07/01 03:02:41;;;;;;;25.97;16.77;;;;;;;11.76;100.00;101467.13;10483264;28;20040;-78
2022/07/01 03:07:42;;;;;;;29.48;17.83;;;;;;;11.76;100.00;101477.59;10479276;28;20084;-78
2022/07/01 03:12:42;;;;;;;25.33;14.88;;;;;;;11.74;100.00;101463.50;10499404;28;20451;-78
2022/07/01 03:17:44;;;;;;;22.00;13.77;;;;;;;11.74;100.00;101453.03;10501139;28;20067;-77
2022/07/01 03:22:46;;;;;;;27.17;14.13;;;;;;;11.72;100.00;101455.53;10492526;28;20028;-78
2022/07/01 03:27:47;;;;;;;31.02;14.43;;;;;;;11.75;100.00;101471.44;10465616;28;20064;-78
2022/07/01 03:32:48;;;;;;;24.30;13.43;;;;;;;11.82;100.00;101475.31;10517807;28;20186;-78
2022/07/01 03:37:49;;;;;;;20.20;11.50;;;;;;;11.94;100.00;101461.91;10493269;28;20123;-79
2022/07/01 03:42:49;;;;;;;17.98;10.63;;;;;;;11.97;100.00;101482.16;10512944;28;20135;-78
2022/07/01 03:47:50;;;;;;;18.60;10.82;;;;;;;12.00;100.00;101493.75;10491661;28;20043;-78
2022/07/01 03:58:10;;;;;;;17.00;10.27;;;;;;;12.03;100.00;101499.16;10498055;28;20048;-77
2022/07/01 04:03:11;;;;;;;19.40;10.48;;;;;;;12.10;100.00;101499.47;10509546;28;20048;-77
2022/07/01 04:08:11;;;;;;;16.75;9.93;;;;;;;12.15;100.00;101482.22;10506488;28;20043;-77
2022/07/01 04:13:12;;;;;;;16.95;10.68;;;;;;;12.12;100.00;101492.56;10487410;28;20383;-78
2022/07/01 04:18:12;;;;;;;15.02;10.02;;;;;;;12.10;100.00;101484.63;10524935;28;20119;-77
2022/07/01 04:23:13;;;;;;;16.83;9.85;;;;;;;12.14;100.00;101490.91;10462500;28;20115;-77
2022/07/01 04:28:13;;;;;;;15.18;8.40;;;;;;;12.17;100.00;101493.72;10518382;28;20044;-77
2022/07/01 04:33:14;;;;;;;13.77;8.50;;;;;;;12.26;100.00;101504.66;10478145;28;20426;-78
2022/07/01 04:38:14;;;;;;;17.27;10.02;;;;;;;12.32;100.00;101490.97;10473115;28;20131;-77
2022/07/01 04:43:15;;;;;;;13.18;10.27;;;;;;;12.38;100.00;101498.25;10491740;28;20033;-77
2022/07/01 04:48:15;;;;;;;13.90;8.13;;;;;;;12.55;100.00;101491.22;10488821;27;20048;-78
2022/07/01 04:53:16;;;;;;;15.60;7.97;;;;;;;12.66;100.00;101511.03;10469246;28;20102;-78
2022/07/01 04:58:16;;;;;;;23.55;9.40;;;;;;;12.70;100.00;101507.75;10463322;28;20061;-77
2022/07/01 05:03:17;;;;;;;18.90;8.85;;;;;;;12.71;100.00;101506.00;10498239;28;20036;-77
2022/07/01 05:08:17;;;;;;;15.00;9.32;;;;;;;12.67;100.00;101499.72;10512288;28;20119;-77
2022/07/01 05:13:18;;;;;;;23.98;10.63;;;;;;;12.69;100.00;101469.16;10493543;28;20061;-78
2022/07/01 05:23:37;;;;;;;16.73;9.15;;;;;;;12.99;100.00;101466.22;10509810;28;20360;-78
2022/07/01 05:28:38;;;;;;;13.57;10.35;;;;;;;13.07;99.26;101480.63;10471467;28;20545;-77
2022/07/01 05:33:39;;;;;;;16.45;10.43;;;;;;;12.91;98.66;101502.63;10492653;28;20075;-77
2022/07/01 05:38:39;;;;;;;15.90;9.80;;;;;;;12.96;99.06;101486.16;10501228;28;20557;-77
2022/07/01 05:43:40;;;;;;;15.20;9.93;;;;;;;12.95;99.07;101489.63;10501436;28;20040;-77
2022/07/01 05:48:40;;;;;;;47.53;32.28;;;;;;;12.87;100.00;101502.41;10488939;28;20145;-78
2022/07/01 05:53:43;;;;;;;15.23;10.60;;;;;;;13.01;100.00;101495.16;10520077;28;20040;-77
2022/07/01 05:58:43;;;;;;;;;;;;;;;13.30;99.50;101506.16;10502142;28;20488;-77
2022/07/01 06:03:44;;;;;;;13.35;8.80;;;;;;;13.41;97.52;101507.56;10526024;28;22147;-77
2022/07/01 06:08:44;;;;;;;13.10;10.15;;;;;;;13.75;97.71;101513.50;10526109;28;20499;-77
2022/07/01 06:13:45;;;;;;;22.80;9.32;;;;;;;14.30;93.02;101514.13;10509387;28;20039;-77
2022/07/01 06:18:45;;;;;;;14.07;8.40;;;;;;;14.30;91.60;101516.75;10508817;28;20491;-77
2022/07/01 06:23:46;;;;;;;11.13;8.70;;;;;;;14.27;91.07;101517.50;10484429;28;20147;-77
2022/07/01 06:28:46;;;;;;;16.15;7.90;;;;;;;14.45;91.66;101517.41;10483545;28;20056;-78
2022/07/01 06:33:47;;;;;;;16.50;8.75;;;;;;;14.81;89.59;101513.63;10513612;28;20153;-77
2022/07/01 06:38:48;;;;;;;14.85;8.45;;;;;;;14.57;90.05;101524.03;10489775;28;20052;-78
2022/07/01 06:43:48;;;;;;;13.75;8.38;;;;;;;15.15;90.30;101508.81;10502217;28;20081;-78
2022/07/01 06:48:51;;;;;;;12.18;6.20;;;;;;;16.92;79.73;101509.75;10447475;28;20064;-77
2022/07/01 06:53:52;;;;;;;8.88;5.75;;;;;;;16.87;76.33;101515.81;10483942;28;20047;-77
2022/07/01 06:58:52;;;;;;;13.45;5.55;;;;;;;17.65;74.28;101517.25;10407864;28;20037;-77
2022/07/01 07:03:53;;;;;;;9.35;5.45;;;;;;;17.15;72.98;101521.09;10442052;28;20579;-78
2022/07/01 07:08:53;;;;;;;12.38;5.18;;;;;;;16.11;77.38;101544.06;10441647;28;20120;-78
2022/07/01 07:13:54;;;;;;;7.60;5.78;;;;;;;16.13;77.05;101552.94;10422525;28;20485;-78
2022/07/01 07:18:54;;;;;;;9.90;5.13;;;;;;;16.21;78.20;101546.19;10398478;28;20144;-78
2022/07/01 07:23:55;;;;;;;7.38;4.00;;;;;;;15.80;77.72;101543.78;10468236;28;20038;-79
2022/07/01 07:28:55;;;;;;;14.93;10.20;;;;;;;15.67;78.30;101552.09;10424614;28;20488;-80
2022/07/01 07:33:56;;;;;;;22.65;15.00;;;;;;;17.28;75.59;101551.47;10446882;28;20083;-81
2022/07/01 07:38:56;;;;;;;11.70;4.70;;;;;;;18.42;68.97;101548.53;10441471;28;20474;-80
2022/07/01 07:43:57;;;;;;;9.60;7.15;;;;;;;19.16;66.28;101559.19;10443125;28;20050;-81
2022/07/01 07:48:57;;;;;;;6.80;4.20;;;;;;;18.77;65.55;101559.13;10462615;28;20124;-80
2022/07/01 07:53:58;;;;;;;6.85;3.20;;;;;;;19.10;65.13;101561.72;10453373;28;20045;-79
2022/07/01 07:58:58;;;;;;;7.43;3.58;;;;;;;19.58;63.38;101562.78;10473491;28;20086;-80
2022/07/01 08:03:59;;;;;;;4.07;2.15;;;;;;;19.75;60.25;101568.44;10474127;28;20086;-78
2022/07/01 08:09:00;;;;;;;6.17;2.70;;;;;;;20.77;58.86;101569.50;10442327;28;20129;-79
2022/07/01 08:14:00;;;;;;;3.40;2.03;;;;;;;21.56;54.19;101568.94;10456770;28;20063;-80
2022/07/01 08:19:02;;;;;;;4.57;2.93;;;;;;;21.81;55.02;101582.59;10461716;28;20032;-80
2022/07/01 08:24:03;;;;;;;4.60;2.35;;;;;;;22.86;53.58;101576.56;10475571;28;20067;-80
2022/07/01 08:29:03;;;;;;;5.40;2.50;;;;;;;22.98;52.19;101576.66;10489756;28;20039;-79
2022/07/01 08:34:04;;;;;;;4.07;2.20;;;;;;;20.68;55.39;101588.84;10472309;28;20484;-80
2022/07/01 08:39:10;;;;;;;6.03;2.33;;;;;;;19.34;61.99;101587.94;10488100;28;20428;-79
2022/07/01 08:44:11;;;;;;;6.10;2.13;;;;;;;20.74;56.50;101588.94;10495328;28;20048;-79
2022/07/01 08:49:12;;;;;;;3.83;1.93;;;;;;;23.00;54.35;101585.56;10490465;28;20431;-78
2022/07/01 08:54:12;;;;;;;5.33;1.30;;;;;;;23.54;49.90;101600.19;10470697;28;20043;-79
2022/07/01 08:59:21;;;;;;;3.67;1.70;;;;;;;23.59;47.61;101595.75;10445906;28;20101;-80
2022/07/01 09:04:21;;;;;;;7.45;4.95;;;;;;;25.05;45.19;101593.44;10428735;28;20132;-79
2022/07/01 09:09:22;;;;;;;8.67;2.00;;;;;;;24.65;45.36;101597.00;10464631;28;20082;-77
2022/07/01 09:14:30;;;;;;;3.77;1.43;;;;;;;23.59;43.96;101612.69;10469849;28;20063;-79
2022/07/01 09:19:36;;;;;;;5.10;1.20;;;;;;;21.67;49.88;101616.16;10468350;28;20568;-80
2022/07/01 09:24:44;;;;;;;10.52;5.05;;;;;;;23.43;46.66;101609.03;10438700;28;20116;-81
2022/07/01 09:29:48;;;;;;;6.35;2.15;;;;;;;22.36;46.47;101620.53;10409480;28;20521;-80
2022/07/01 09:34:50;;;;;;;4.57;1.45;;;;;;;21.64;50.25;101621.44;10482431;28;20044;-87
2022/07/01 09:39:51;;;;;;;;;;;;;;;23.24;45.26;101621.38;10471200;28;20043;-83
2022/07/01 09:44:55;;;;;;;2.70;1.20;;;;;;;21.25;51.99;101635.06;10506204;28;20372;-79
2022/07/01 09:49:56;;;;;;;7.03;4.60;;;;;;;22.45;46.65;101636.66;10486713;28;20044;-79
2022/07/01 09:54:56;;;;;;;5.33;1.50;;;;;;;20.92;46.75;101628.31;10452105;28;20132;-81
2022/07/01 09:59:58;;;;;;;4.50;1.33;;;;;;;22.91;46.84;101635.31;10484334;28;20052;-80
2022/07/01 10:05:18;;;;;;;2.60;1.27;;;;;;;25.19;41.57;101622.88;10476510;28;20048;-80
2022/07/01 10:10:47;;;;;;;4.07;1.20;;;;;;;23.46;45.89;101645.56;10488095;28;20085;-79
2022/07/01 10:15:48;;;;;;;2.05;0.80;;;;;;;23.46;43.93;101648.22;10484569;28;20056;-79
2022/07/01 10:20:48;;;;;;;2.83;0.93;;;;;;;22.39;45.70;101650.78;10440848;28;20094;-79
2022/07/01 10:25:53;;;;;;;3.53;0.80;;;;;;;25.69;40.88;101638.88;10445699;28;20086;-78
2022/07/01 10:30:59;;;;;;;3.70;0.75;;;;;;;23.97;39.89;101634.25;10442010;28;20037;-78
2022/07/01 10:36:04;;;;;;;6.75;1.00;;;;;;;22.87;43.88;101642.41;10480561;28;20384;-78
2022/07/01 10:41:10;;;;;;;4.47;1.23;;;;;;;22.89;44.11;101635.31;10466805;28;20033;-78
2022/07/01 10:46:11;;;;;;;4.00;1.50;;;;;;;23.50;43.60;101628.66;10465262;28;20045;-79
2022/07/01 10:51:17;;;;;;;6.87;1.67;;;;;;;25.13;43.76;101631.81;10523688;28;20074;-79
2022/07/01 10:56:18;;;;;;;6.13;1.95;;;;;;;24.53;38.45;101629.97;10526737;28;20085;-80
2022/07/01 11:01:18;;;;;;;1.43;0.80;;;;;;;24.61;39.80;101633.53;10527023;28;20093;-78
2022/07/01 11:06:19;;;;;;;12.60;2.50;;;;;;;25.69;38.15;101622.81;10524914;28;20055;-79
2022/07/01 11:11:20;;;;;;;3.13;0.97;;;;;;;24.93;38.18;101627.34;10526305;28;20059;-79
2022/07/01 11:16:20;;;;;;;3.93;0.90;;;;;;;24.39;40.88;101635.31;10527122;28;20075;-80
2022/07/01 11:21:21;;;;;;;2.33;0.80;;;;;;;24.84;39.54;101622.00;10524301;28;20042;-78
2022/07/01 11:26:23;;;;;;;3.20;0.73;;;;;;;25.84;37.45;101614.69;10507159;28;20048;-79
2022/07/01 11:31:28;;;;;;;3.55;1.20;;;;;;;26.07;38.95;101614.56;10524132;28;20032;-79
2022/07/01 11:41:58;;;;;;;1.67;0.70;;;;;;;26.54;35.26;101603.59;10497346;28;20136;-78
2022/07/01 11:47:00;;;;;;;2.37;1.70;;;;;;;26.91;35.47;101599.75;10481859;28;20039;-80
2022/07/01 11:52:02;;;;;;;6.00;2.05;;;;;;;25.97;36.77;101610.16;10488358;28;20805;-79
2022/07/01 11:57:16;;;;;;;3.03;1.10;;;;;;;26.39;36.48;101601.91;10489730;28;20571;-79
2022/07/01 12:02:18;;;;;;;8.75;1.70;;;;;;;24.78;38.26;101608.59;10471250;28;20056;-80
2022/07/01 12:07:21;;;;;;;3.13;1.15;;;;;;;22.78;42.30;101619.19;10433135;28;20561;-78
2022/07/01 12:12:24;;;;;;;4.50;1.08;;;;;;;21.56;44.80;101629.28;10448863;28;20103;-79
2022/07/01 12:17:26;;;;;;;5.45;1.73;;;;;;;23.19;42.66;101623.09;10449134;28;20040;-78
2022/07/01 12:22:28;;;;;;;4.63;1.63;;;;;;;25.48;38.73;101620.16;10452254;28;20553;-78
2022/07/01 12:27:28;;;;;;;3.83;0.90;;;;;;;27.23;36.54;101620.06;10452255;28;20392;-77
2022/07/01 12:32:29;;;;;;;4.70;1.43;;;;;;;25.08;38.19;101630.91;10450839;28;20071;-78
2022/07/01 12:37:37;;;;;;;3.53;1.33;;;;;;;24.38;41.79;101629.94;10450062;28;20028;-78
2022/07/01 12:42:42;;;;;;;3.40;1.25;;;;;;;23.64;39.97;101627.84;10444042;28;20546;-78
2022/07/01 12:47:45;;;;;;;4.60;1.30;;;;;;;21.58;44.09;101624.00;10493020;28;20047;-77
2022/07/01 12:53:12;;;;;;;3.53;1.33;;;;;;;20.43;49.50;101643.34;10476126;28;20049;-76
2022/07/01 12:58:14;;;;;;;2.88;1.35;;;;;;;20.30;49.24;101644.84;10496758;28;20039;-80
2022/07/01 13:03:18;;;;;;;3.83;1.20;;;;;;;21.85;48.67;101631.47;10464493;28;20036;-77
2022/07/01 13:08:19;;;;;;;2.67;1.17;;;;;;;22.22;47.23;101639.03;10501140;28;20044;-81
2022/07/01 13:13:20;;;;;;;4.88;2.33;;;;;;;23.41;43.51;101629.47;10477732;28;20032;-82
2022/07/01 13:18:21;;;;;;;3.47;1.60;;;;;;;24.81;40.00;101631.81;10491606;28;20040;-82
2022/07/01 13:23:21;;;;;;;11.43;5.10;;;;;;;23.98;42.39;101642.25;10483326;28;20051;-77
2022/07/01 13:28:22;;;;;;;4.77;1.87;;;;;;;24.38;41.40;101644.22;10443929;28;20043;-79
2022/07/01 13:33:22;;;;;;;4.90;1.60;;;;;;;23.19;44.26;101644.44;10434799;28;20103;-81
2022/07/01 13:38:23;;;;;;;3.03;1.50;;;;;;;24.19;40.44;101640.56;10472131;28;20064;-79
2022/07/01 13:43:23;;;;;;;3.60;1.40;;;;;;;22.99;42.11;101652.28;10472952;28;20123;-78
2022/07/01 13:48:24;;;;;;;2.10;1.10;;;;;;;23.26;44.09;101651.66;10480811;28;20108;-78
2022/07/01 13:53:25;;;;;;;5.97;2.43;;;;;;;23.64;45.66;101654.56;10485576;28;20049;-77
2022/07/01 13:58:25;;;;;;;7.33;2.13;;;;;;;25.07;40.88;101651.47;10493251;28;20036;-77
2022/07/01 14:03:26;;;;;;;3.90;1.23;;;;;;;24.96;39.40;101663.97;10484144;28;20365;-76
2022/07/01 14:08:26;;;;;;;2.43;0.83;;;;;;;24.99;39.08;101661.28;10486629;28;20040;-76
2022/07/01 14:13:27;;;;;;;3.03;1.03;;;;;;;24.93;36.87;101672.84;10470011;28;20115;-76
2022/07/01 14:18:27;;;;;;;1.93;0.90;;;;;;;24.96;36.61;101680.03;10493704;28;20091;-79
2022/07/01 14:23:28;;;;;;;7.60;4.33;;;;;;;25.22;38.75;101665.72;10495318;28;20123;-74
2022/07/01 14:28:28;;;;;;;6.47;2.30;;;;;;;23.77;39.40;101667.13;10472390;28;20128;-74
2022/07/01 14:33:29;;;;;;;4.67;1.17;;;;;;;24.42;39.58;101663.81;10481903;28;20124;-77
2022/07/01 14:38:29;;;;;;;2.57;0.83;;;;;;;23.28;38.39;101675.69;10483459;28;20135;-74
2022/07/01 14:43:31;;;;;;;9.07;1.13;;;;;;;22.94;42.62;101676.28;10483607;28;20107;-75
2022/07/01 14:48:35;;;;;;;3.55;1.08;;;;;;;22.88;44.23;101668.22;10489799;28;20118;-74
2022/07/01 14:53:36;;;;;;;2.25;0.80;;;;;;;23.00;40.09;101675.41;10465556;28;20484;-76
2022/07/01 14:58:36;;;;;;;2.30;1.13;;;;;;;22.93;43.47;101679.81;10445674;28;20048;-76
2022/07/01 15:03:43;;;;;;;4.87;1.43;;;;;;;22.68;43.78;101689.34;10437144;28;20049;-74
2022/07/01 15:08:44;;;;;;;5.10;1.63;;;;;;;22.00;43.11;101676.97;10439576;28;20098;-78
2022/07/01 15:13:44;;;;;;;2.67;1.52;;;;;;;21.38;44.36;101678.72;10441982;28;20550;-76
2022/07/01 15:18:45;;;;;;;1.58;1.15;;;;;;;21.27;45.71;101686.56;10441153;28;20032;-77
2022/07/01 15:23:45;;;;;;;4.25;1.38;;;;;;;21.39;46.28;101692.94;10424527;28;20162;-76
2022/07/01 15:28:46;;;;;;;4.72;2.50;;;;;;;20.93;44.13;101687.72;10437471;28;20433;-76
2022/07/01 15:33:46;;;;;;;3.97;1.95;;;;;;;21.00;46.87;101689.63;10449715;28;20122;-78
2022/07/01 15:38:47;;;;;;;2.65;1.50;;;;;;;20.66;48.83;101691.63;10432192;28;20178;-77
2022/07/01 15:43:49;;;;;;;5.55;1.52;;;;;;;20.68;44.98;101695.22;10451073;28;20049;-76
2022/07/01 15:48:49;;;;;;;3.35;1.48;;;;;;;20.61;46.52;101696.88;10516320;28;20036;-76
2022/07/01 15:53:50;;;;;;;3.65;1.25;;;;;;;20.53;45.81;101701.16;10513248;28;20075;-75
2022/07/01 15:58:51;;;;;;;1.85;1.20;;;;;;;20.64;46.56;101699.59;10481337;28;20067;-76
2022/07/01 16:03:52;;;;;;;3.40;1.52;;;;;;;20.75;44.84;101710.44;10518474;28;20071;-76
2022/07/01 16:08:56;;;;;;;2.83;1.45;;;;;;;20.44;45.17;101701.84;10483457;28;20384;-75
2022/07/01 16:13:57;;;;;;;3.28;1.02;;;;;;;20.25;46.94;101705.91;10464082;28;20037;-75
2022/07/01 16:18:58;;;;;;;5.10;1.65;;;;;;;19.77;48.42;101703.06;10514235;28;20496;-75
2022/07/01 16:23:58;;;;;;;3.83;2.30;;;;;;;19.72;50.45;101706.47;10479406;28;20090;-75
2022/07/01 16:28:59;;;;;;;7.97;1.70;;;;;;;20.17;50.66;101704.84;10496217;28;20212;-76
2022/07/01 16:34:00;;;;;;;2.83;1.17;;;;;;;20.38;48.58;101704.38;10480500;28;20122;-76
2022/07/01 16:39:06;;;;;;;5.75;1.30;;;;;;;20.39;47.20;101707.09;10508572;28;20040;-76
2022/07/01 16:44:13;;;;;;;5.55;2.13;;;;;;;20.21;46.69;101710.25;10507656;28;20040;-76
2022/07/01 16:49:23;;;;;;;2.42;1.30;;;;;;;20.20;47.56;101708.47;10453287;27;20118;-76
2022/07/01 16:54:25;;;;;;;5.65;2.80;;;;;;;19.94;49.53;101715.88;10475213;28;20032;-77
2022/07/01 16:59:25;;;;;;;7.13;1.70;;;;;;;19.87;50.95;101727.19;10484827;28;20036;-76
2022/07/01 17:04:26;;;;;;;7.22;2.75;;;;;;;19.72;52.18;101727.72;10530761;28;20044;-75
2022/07/01 17:09:27;;;;;;;6.13;2.03;;;;;;;19.53;53.71;101732.59;10525895;28;20028;-76
2022/07/01 17:14:29;;;;;;;3.45;1.60;;;;;;;19.20;52.74;101738.84;10511444;28;20036;-76
2022/07/01 17:19:29;;;;;;;4.18;1.50;;;;;;;18.89;55.04;101744.22;10511374;28;20040;-75
2022/07/01 17:24:30;;;;;;;4.75;2.35;;;;;;;18.84;55.89;101748.50;10529469;28;20074;-75
2022/07/01 17:29:35;;;;;;;6.22;1.60;;;;;;;18.86;56.58;101749.44;10528964;28;20057;-76
2022/07/01 17:34:36;;;;;;;4.63;2.20;;;;;;;18.71;56.03;101749.88;10528754;28;20028;-75
2022/07/01 17:39:37;;;;;;;4.88;1.45;;;;;;;18.56;56.41;101755.66;10510747;28;20036;-76
2022/07/01 17:44:37;;;;;;;4.85;1.08;;;;;;;18.34;57.93;101754.13;10528412;28;20056;-75
2022/07/01 17:49:38;;;;;;;5.72;1.80;;;;;;;18.27;56.63;101760.09;10526309;28;20115;-75
2022/07/01 17:54:38;;;;;;;4.65;2.65;;;;;;;18.10;58.34;101770.19;10490123;28;20127;-76
2022/07/01 17:59:39;;;;;;;4.22;1.60;;;;;;;17.91;58.43;101778.41;10526242;28;20051;-77
2022/07/01 18:04:39;;;;;;;3.60;1.48;;;;;;;17.78;59.92;101770.91;10490895;28;20049;-75
2022/07/01 18:09:40;;;;;;;5.90;1.30;;;;;;;17.71;60.11;101780.41;10485044;28;20035;-76
2022/07/01 18:15:03;;;;;;;3.85;1.40;;;;;;;17.46;63.20;101794.56;10486044;28;20043;-76
2022/07/01 18:20:25;;;;;;;4.40;1.70;;;;;;;17.31;59.90;101785.25;10486638;28;20105;-75
2022/07/01 18:25:27;;;;;;;5.30;1.52;;;;;;;17.16;62.45;101787.38;10460235;28;20052;-75
2022/07/01 18:30:34;;;;;;;6.35;1.30;;;;;;;16.99;61.64;101794.72;10446316;28;20094;-75
2022/07/01 18:35:35;;;;;;;2.42;1.05;;;;;;;16.81;63.81;101789.59;10508698;28;20499;-75
2022/07/01 18:40:36;;;;;;;3.15;1.38;;;;;;;16.60;64.54;101798.53;10511128;28;20032;-75
2022/07/01 18:45:37;;;;;;;5.32;1.63;;;;;;;16.39;65.17;101798.63;10525918;28;20024;-74
2022/07/01 18:50:38;;;;;;;6.00;1.60;;;;;;;16.20;64.93;101799.66;10520688;28;20036;-75
2022/07/01 18:55:39;;;;;;;6.20;1.98;;;;;;;15.97;68.16;101805.81;10525117;28;20032;-76
2022/07/01 19:00:39;;;;;;;4.70;1.75;;;;;;;15.80;71.88;101805.09;10519248;28;20518;-75
2022/07/01 19:05:40;;;;;;;3.72;1.52;;;;;;;15.68;73.67;101804.56;10483441;28;20127;-75
2022/07/01 19:10:40;;;;;;;4.68;1.50;;;;;;;15.55;76.41;101809.34;10503880;28;20054;-76
2022/07/01 19:15:41;;;;;;;4.97;1.58;;;;;;;15.27;76.39;101817.81;10491544;28;20040;-75
2022/07/01 19:20:41;;;;;;;3.20;1.20;;;;;;;15.13;76.57;101819.84;10503036;28;20132;-75
2022/07/01 19:25:42;;;;;;;3.90;1.80;;;;;;;14.87;78.29;101832.75;10516355;28;20033;-76
2022/07/01 19:30:42;;;;;;;2.97;1.85;;;;;;;14.60;80.20;101835.88;10498372;28;20055;-76
2022/07/01 19:35:43;;;;;;;5.75;2.83;;;;;;;14.44;80.37;101844.81;10484686;28;20067;-76
2022/07/01 19:40:43;;;;;;;3.78;1.90;;;;;;;14.22;79.94;101851.69;10482473;28;20060;-75
2022/07/01 19:45:44;;;;;;;6.82;2.00;;;;;;;14.03;80.90;101857.78;10516363;28;20395;-75
2022/07/01 19:50:45;;;;;;;4.90;2.45;;;;;;;13.81;81.84;101858.44;10493581;28;20064;-76
2022/07/01 19:55:45;;;;;;;5.10;2.33;;;;;;;13.70;83.19;101868.41;10516945;28;20128;-75
2022/07/01 20:00:46;;;;;;;6.38;2.33;;;;;;;13.46;83.52;101870.69;10502592;28;20040;-75
2022/07/01 20:05:46;;;;;;;10.95;2.63;;;;;;;13.28;85.53;101882.03;10482702;28;20115;-75
2022/07/01 20:10:47;;;;;;;8.30;2.97;;;;;;;13.12;86.83;101885.56;10484103;28;20109;-76
2022/07/01 20:15:47;;;;;;;4.97;2.63;;;;;;;12.98;87.04;101892.72;10489668;28;20036;-76
2022/07/01 20:20:48;;;;;;;5.57;2.28;;;;;;;12.84;88.91;101910.34;10495341;28;20056;-76
2022/07/01 20:25:49;;;;;;;4.20;2.00;;;;;;;12.68;89.49;101910.31;10531776;28;21054;-75
2022/07/01 20:30:49;;;;;;;8.13;1.98;;;;;;;12.57;90.78;101912.34;10529385;28;20135;-75
2022/07/01 20:35:50;;;;;;;6.90;2.25;;;;;;;12.51;91.68;101923.38;10489291;28;20120;-75
2022/07/01 20:40:50;;;;;;;4.82;2.00;;;;;;;12.40;91.88;101930.66;10489960;28;20463;-75
2022/07/01 20:45:51;;;;;;;4.90;2.20;;;;;;;12.33;91.67;101934.66;10509501;28;20052;-76
2022/07/01 20:50:51;;;;;;;5.57;2.78;;;;;;;12.19;92.56;101932.94;10522710;28;20158;-75
2022/07/01 20:55:52;;;;;;;6.25;3.08;;;;;;;12.02;93.53;101927.63;10489278;28;20115;-75
2022/07/01 21:00:53;;;;;;;7.65;2.55;;;;;;;11.90;94.09;101945.22;10507443;28;20515;-75
2022/07/01 21:05:53;;;;;;;3.78;2.33;;;;;;;11.86;94.72;101945.84;10532383;28;20071;-75
2022/07/01 21:10:54;;;;;;;8.15;2.80;;;;;;;11.84;95.34;101955.34;10525110;28;20455;-75
2022/07/01 21:15:54;;;;;;;7.63;3.10;;;;;;;11.80;95.71;101963.84;10488796;28;20037;-75
2022/07/01 21:20:55;;;;;;;7.43;3.00;;;;;;;11.71;95.93;101974.69;10537675;28;21232;-76
2022/07/01 21:25:55;;;;;;;6.25;4.30;;;;;;;11.65;96.50;101976.94;10499505;28;20046;-74
2022/07/01 21:30:57;;;;;;;8.05;3.70;;;;;;;11.66;96.37;101984.91;10528499;28;20491;-75
2022/07/01 21:36:01;;;;;;;8.15;3.42;;;;;;;11.54;97.04;101990.31;10510161;28;20944;-75
2022/07/01 21:41:01;;;;;;;8.55;4.22;;;;;;;11.46;97.74;101989.81;10528352;28;20043;-75
2022/07/01 21:46:04;;;;;;;8.40;3.28;;;;;;;11.49;97.86;101988.19;10497650;28;20519;-75
2022/07/01 21:51:04;;;;;;;8.15;3.25;;;;;;;11.43;98.11;101996.59;10519956;28;20041;-75
2022/07/01 21:56:05;;;;;;;7.53;3.45;;;;;;;11.42;97.84;101990.44;10499226;28;20036;-75
2022/07/01 22:01:06;;;;;;;8.05;3.75;;;;;;;11.27;98.00;101985.16;10510845;28;20040;-75
2022/07/01 22:11:20;;;;;;;;;;;;;;;11.14;98.97;101993.06;10521611;28;20070;-75
2022/07/01 22:16:21;;;;;;;7.00;3.38;;;;;;;11.12;99.67;101992.94;10485683;28;20391;-75
2022/07/01 22:21:22;;;;;;;10.70;4.72;;;;;;;11.13;99.74;101989.53;10509414;28;20056;-75
2022/07/01 22:26:23;;;;;;;5.63;3.67;;;;;;;11.12;99.78;101990.31;10508896;28;20426;-75
2022/07/01 22:31:24;;;;;;;10.55;4.10;;;;;;;11.04;100.00;101988.94;10487152;28;20116;-75
2022/07/01 22:36:24;;;;;;;4.53;3.10;;;;;;;10.96;100.00;101993.69;10483966;28;20549;-75
2022/07/01 22:41:25;;;;;;;9.43;3.00;;;;;;;10.93;100.00;101998.75;10505723;28;20043;-75
2022/07/01 22:46:42;;;;;;;3.97;2.90;;;;;;;10.86;100.00;102000.03;10526670;28;20040;-75
2022/07/01 22:52:01;;;;;;;8.23;3.80;;;;;;;10.84;100.00;101993.81;10498402;28;20451;-76
2022/07/01 22:57:02;;;;;;;8.60;3.92;;;;;;;10.77;100.00;102004.69;10483927;28;20372;-76
2022/07/01 23:02:02;;;;;;;8.77;3.30;;;;;;;10.80;100.00;102004.00;10482786;28;20043;-76
2022/07/01 23:07:15;;;;;;;9.30;4.90;;;;;;;10.75;100.00;102002.78;10492887;28;20512;-76
2022/07/01 23:12:21;;;;;;;7.68;2.63;;;;;;;10.64;100.00;102002.06;10442034;28;20404;-76
2022/07/01 23:17:21;;;;;;;11.77;3.47;;;;;;;10.58;100.00;102006.09;10409863;28;20029;-76